Time;durP1;ratioP1;P1;durP2;ratioP2;P2;SDS_P1;SDS_P2;PMS_P1;PMS_P2;Temp;Humidity;BMP_temperature;BMP_pressure;BME280_temperature;BME280_humidity;BME280_pressure;Samples;Min_cycle;Max_cycle;Signal;HPM_P1;HPM_P2
2022/09/23 00:00:42;;;;;;;15.38;7.85;;;;;;;9.59;78.75;101737.25;5062236;28;20411;-78
2022/09/23 00:03:08;;;;;;;13.50;8.32;;;;;;;9.54;78.21;101745.19;5063357;28;20012;-78
2022/09/23 00:05:35;;;;;;;14.18;8.75;;;;;;;9.54;79.52;101739.03;5061558;28;20060;-77
2022/09/23 00:08:00;;;;;;;15.07;9.43;;;;;;;9.50;79.60;101732.88;5056947;28;20127;-78
2022/09/23 00:10:29;;;;;;;13.18;8.20;;;;;;;9.48;79.12;101738.16;5062114;28;20119;-78
2022/09/23 00:12:56;;;;;;;11.55;7.88;;;;;;;9.46;78.48;101734.63;5064659;28;20032;-78
2022/09/23 00:15:24;;;;;;;12.32;8.48;;;;;;;9.45;78.81;101732.00;5062648;28;20032;-78
2022/09/23 00:17:50;;;;;;;11.93;8.77;;;;;;;9.44;80.53;101730.25;5060074;28;20044;-78
2022/09/23 00:20:16;;;;;;;15.02;8.38;;;;;;;9.41;78.40;101731.13;5059333;28;20041;-78
2022/09/23 00:22:42;;;;;;;13.82;8.50;;;;;;;9.41;78.79;101727.63;5052402;28;20059;-78
2022/09/23 00:25:09;;;;;;;12.10;8.38;;;;;;;9.37;79.09;101725.84;5052043;28;20021;-78
2022/09/23 00:27:36;;;;;;;13.63;8.45;;;;;;;9.36;80.48;101729.38;5054469;28;20059;-78
2022/09/23 00:30:05;;;;;;;13.75;8.38;;;;;;;9.32;79.25;101720.59;5058096;28;20102;-78
2022/09/23 00:32:31;;;;;;;15.75;8.85;;;;;;;9.31;80.97;101717.94;5050930;28;20044;-78
2022/09/23 00:34:56;;;;;;;11.55;8.30;;;;;;;9.31;79.23;101720.59;5052651;28;20029;-78
2022/09/23 00:37:22;;;;;;;11.73;8.40;;;;;;;9.29;80.13;101717.06;5048356;28;20033;-78
2022/09/23 00:39:47;;;;;;;12.07;8.52;;;;;;;9.24;79.18;101704.72;5051847;28;20449;-78
2022/09/23 00:42:20;;;;;;;15.85;9.10;;;;;;;9.25;79.68;101710.94;5051947;28;20142;-78
2022/09/23 00:44:54;;;;;;;10.60;9.00;;;;;;;9.24;79.24;101709.16;5061821;28;20098;-78
2022/09/23 00:47:34;;;;;;;12.75;8.68;;;;;;;9.24;80.27;101707.38;5068304;28;20464;-78
2022/09/23 00:50:20;;;;;;;12.68;8.85;;;;;;;9.24;79.44;101706.50;5071736;28;20133;-77
2022/09/23 00:52:46;;;;;;;12.02;8.20;;;;;;;9.22;79.54;101706.53;5071786;28;20468;-78
2022/09/23 00:55:20;;;;;;;11.98;8.10;;;;;;;9.21;79.39;101699.47;5070124;28;20051;-78
2022/09/23 00:57:46;;;;;;;13.35;8.32;;;;;;;9.22;80.25;101700.34;5071855;28;20360;-77
2022/09/23 01:00:13;;;;;;;11.60;8.52;;;;;;;9.21;79.57;101703.88;5067284;28;20050;-78
2022/09/23 01:02:38;;;;;;;17.75;8.60;;;;;;;9.20;80.01;101699.50;5071697;28;20035;-78
2022/09/23 01:05:05;;;;;;;12.05;8.48;;;;;;;9.21;80.28;101703.88;5071273;28;20038;-78
2022/09/23 01:07:31;;;;;;;13.73;8.23;;;;;;;9.19;79.98;101697.72;5071503;28;20496;-78
2022/09/23 01:09:58;;;;;;;11.43;7.72;;;;;;;9.16;79.70;101703.88;5071320;28;20124;-78
2022/09/23 01:12:51;;;;;;;11.85;7.88;;;;;;;9.17;79.29;101702.13;5070336;28;20031;-78
2022/09/23 01:15:32;;;;;;;13.95;7.93;;;;;;;9.14;79.96;101697.72;5055423;28;20049;-78
2022/09/23 01:18:20;;;;;;;15.35;8.40;;;;;;;9.10;80.32;101693.34;5055642;28;20048;-78
2022/09/23 01:21:20;;;;;;;13.68;8.48;;;;;;;9.08;80.54;101694.22;5071201;28;20435;-78
2022/09/23 01:23:54;;;;;;;14.35;8.68;;;;;;;9.01;80.38;101696.00;5059852;28;20388;-78
2022/09/23 01:26:44;;;;;;;11.82;7.78;;;;;;;8.98;80.38;101704.81;5071116;28;20127;-78
2022/09/23 01:29:48;;;;;;;10.57;8.10;;;;;;;8.95;80.22;101702.19;5061595;28;20041;-78
2022/09/23 01:32:32;;;;;;;12.95;8.45;;;;;;;8.90;80.34;101695.13;5059940;28;20376;-77
2022/09/23 01:35:19;;;;;;;11.98;8.15;;;;;;;8.86;79.50;101691.63;5051793;28;20036;-78
2022/09/23 01:38:16;;;;;;;12.43;8.35;;;;;;;8.84;80.26;101685.44;5069837;28;20326;-78
2022/09/23 01:40:51;;;;;;;11.50;8.48;;;;;;;8.80;80.66;101686.31;5057876;28;20079;-78
2022/09/23 01:43:32;;;;;;;13.10;8.18;;;;;;;8.77;79.28;101686.34;5059192;28;20052;-78
2022/09/23 01:46:04;;;;;;;9.82;8.05;;;;;;;8.74;80.49;101689.84;5067824;28;20032;-78
2022/09/23 01:48:56;;;;;;;9.20;7.43;;;;;;;8.75;81.02;101685.44;5069777;28;20048;-78
2022/09/23 01:51:31;;;;;;;12.70;8.07;;;;;;;8.68;80.69;101684.59;5068653;28;20052;-78
2022/09/23 01:54:09;;;;;;;10.90;7.78;;;;;;;8.67;81.75;101676.66;5070640;28;20040;-78
2022/09/23 01:56:42;;;;;;;10.57;8.23;;;;;;;8.65;81.83;101683.69;5070882;28;20047;-77
2022/09/23 01:59:27;;;;;;;13.85;8.57;;;;;;;8.62;81.74;101681.94;5069075;28;20037;-78
2022/09/23 02:02:18;;;;;;;11.82;7.78;;;;;;;8.61;81.48;101681.06;5069597;28;20043;-78
2022/09/23 02:04:50;;;;;;;16.27;8.20;;;;;;;8.59;82.20;101674.91;5070590;28;20049;-78
2022/09/23 02:07:24;;;;;;;11.02;7.70;;;;;;;8.57;82.55;101681.94;5069998;28;20361;-78
2022/09/23 02:10:04;;;;;;;8.32;7.20;;;;;;;8.57;82.20;101676.66;5074597;28;20032;-78
2022/09/23 02:12:34;;;;;;;10.90;8.05;;;;;;;8.57;82.27;101676.66;5073466;28;20428;-78
2022/09/23 02:15:12;;;;;;;11.35;7.78;;;;;;;8.58;82.12;101673.16;5072926;28;20075;-78
2022/09/23 02:17:46;;;;;;;13.27;7.82;;;;;;;8.58;82.93;101673.16;5073373;28;20082;-78
2022/09/23 02:20:19;;;;;;;12.60;7.53;;;;;;;8.58;83.07;101667.88;5073075;28;20029;-78
2022/09/23 02:22:55;;;;;;;10.43;7.65;;;;;;;8.60;82.60;101667.84;5072938;28;20452;-78
2022/09/23 02:25:28;;;;;;;16.27;8.75;;;;;;;8.57;82.58;101666.09;5072880;28;20024;-78
2022/09/23 02:28:13;;;;;;;11.95;7.63;;;;;;;8.57;82.72;101663.44;5067877;28;20050;-77
2022/09/23 02:31:10;;;;;;;9.77;7.93;;;;;;;8.58;82.95;101656.41;5066292;28;20384;-77
2022/09/23 02:33:45;;;;;;;11.45;7.32;;;;;;;8.54;82.76;101657.31;5073102;28;20028;-78
2022/09/23 02:36:24;;;;;;;11.18;8.05;;;;;;;8.55;82.54;101657.28;5074139;28;20028;-77
2022/09/23 02:38:56;;;;;;;11.35;8.05;;;;;;;8.53;82.87;101643.25;5064739;28;20086;-77
2022/09/23 02:41:31;;;;;;;13.38;8.30;;;;;;;8.51;83.58;101647.63;5053877;28;20045;-78
2022/09/23 02:44:03;;;;;;;10.32;7.43;;;;;;;8.47;82.43;101643.22;5059431;28;20076;-77
2022/09/23 02:46:29;;;;;;;13.10;7.40;;;;;;;8.45;82.83;101647.63;5068121;28;20372;-78
2022/09/23 02:49:04;;;;;;;13.50;7.53;;;;;;;8.40;81.93;101636.19;5060489;28;20020;-78
2022/09/23 02:51:33;;;;;;;12.93;8.13;;;;;;;8.39;82.35;101635.31;5055961;28;20507;-78
2022/09/23 02:54:02;;;;;;;11.85;7.68;;;;;;;8.36;81.78;101637.94;5074144;28;20051;-78
2022/09/23 02:56:27;;;;;;;11.52;7.45;;;;;;;8.32;81.44;101625.59;5060060;28;20049;-77
2022/09/23 02:58:54;;;;;;;11.80;7.97;;;;;;;8.31;82.87;101622.97;5073313;28;20032;-77
2022/09/23 03:01:40;;;;;;;10.65;8.02;;;;;;;8.30;82.70;101623.84;5055784;28;20064;-77
2022/09/23 03:04:19;;;;;;;12.63;7.50;;;;;;;8.26;82.06;101617.69;5073796;28;20060;-77
2022/09/23 03:07:02;;;;;;;10.88;7.75;;;;;;;8.25;83.22;101618.56;5072318;28;20032;-77
2022/09/23 03:09:38;;;;;;;12.63;7.35;;;;;;;8.22;83.06;101610.66;5073426;28;20032;-77
2022/09/23 03:12:15;;;;;;;12.10;7.75;;;;;;;8.19;82.57;101621.22;5071759;28;20376;-77
2022/09/23 03:14:57;;;;;;;10.63;7.72;;;;;;;8.17;83.01;101610.66;5061039;28;20040;-78
2022/09/23 03:17:36;;;;;;;9.45;8.23;;;;;;;8.13;82.87;101614.16;5064550;28;20029;-77
2022/09/23 03:20:14;;;;;;;11.63;7.72;;;;;;;8.12;83.23;101608.88;5073307;28;20091;-78
2022/09/23 03:22:55;;;;;;;10.57;7.78;;;;;;;8.10;83.30;101610.66;5073160;28;20040;-77
2022/09/23 03:25:24;;;;;;;10.43;7.93;;;;;;;8.04;83.58;101614.16;5072004;28;20119;-78
2022/09/23 03:27:55;;;;;;;11.32;8.48;;;;;;;8.03;84.09;101611.50;5050955;28;20588;-78
2022/09/23 03:30:21;;;;;;;16.02;8.45;;;;;;;7.99;83.66;101610.66;5067353;28;20105;-78
2022/09/23 03:32:50;;;;;;;13.55;7.78;;;;;;;7.96;83.67;101613.25;5054396;28;20432;-77
2022/09/23 03:35:16;;;;;;;9.88;8.25;;;;;;;7.95;84.74;101612.38;5062355;28;20123;-77
2022/09/23 03:38:14;;;;;;;14.05;8.57;;;;;;;7.96;84.55;101611.53;5071839;28;20119;-77
2022/09/23 03:40:46;;;;;;;12.10;7.65;;;;;;;7.90;85.02;101611.50;5071250;28;20049;-77
2022/09/23 03:43:12;;;;;;;11.80;8.07;;;;;;;7.89;84.67;101615.03;5072917;28;20379;-77
2022/09/23 03:45:38;;;;;;;14.35;8.27;;;;;;;7.88;84.68;101615.00;5048573;28;20064;-78
2022/09/23 03:48:05;;;;;;;12.90;8.27;;;;;;;7.86;85.60;101611.47;5056747;28;20095;-78
2022/09/23 03:50:30;;;;;;;12.98;8.80;;;;;;;7.86;86.20;101612.38;5071846;28;20048;-77
2022/09/23 03:52:57;;;;;;;16.60;9.85;;;;;;;7.86;85.63;101604.47;5072729;28;20068;-77
2022/09/23 03:55:22;;;;;;;12.60;8.63;;;;;;;7.87;85.84;101603.59;5065959;28;20047;-77
2022/09/23 03:57:48;;;;;;;9.50;7.80;;;;;;;7.83;84.05;101593.91;5051636;28;20579;-77
2022/09/23 04:00:14;;;;;;;9.80;8.13;;;;;;;7.84;84.89;101600.97;5050208;28;20044;-77
2022/09/23 04:02:40;;;;;;;12.40;8.00;;;;;;;7.81;85.62;101603.56;5063118;28;20067;-77
2022/09/23 04:05:07;;;;;;;10.05;8.38;;;;;;;7.80;86.35;101596.53;5071312;28;20036;-78
2022/09/23 04:07:33;;;;;;;16.52;8.50;;;;;;;7.78;87.12;101594.78;5045736;28;20472;-77
2022/09/23 04:09:58;;;;;;;16.80;8.13;;;;;;;7.74;85.94;101600.06;5054569;28;20043;-77
2022/09/23 04:12:23;;;;;;;12.30;7.97;;;;;;;7.73;86.03;101600.03;5054829;28;20107;-77
2022/09/23 04:14:49;;;;;;;10.70;8.45;;;;;;;7.70;87.08;101595.63;5072473;28;20044;-77
2022/09/23 04:17:15;;;;;;;10.98;8.02;;;;;;;7.69;86.79;101598.25;5071307;28;20482;-77
2022/09/23 04:19:40;;;;;;;16.27;8.32;;;;;;;7.66;87.17;101596.50;5072450;28;20419;-77
2022/09/23 04:22:08;;;;;;;12.82;7.95;;;;;;;7.66;86.44;101606.16;5054710;28;20078;-77
2022/09/23 04:24:33;;;;;;;11.60;8.27;;;;;;;7.64;85.88;101600.91;5072227;28;20072;-77
2022/09/23 04:26:59;;;;;;;12.10;7.97;;;;;;;7.66;86.66;101593.00;5070602;28;20542;-77
2022/09/23 04:29:25;;;;;;;15.38;8.98;;;;;;;7.68;88.13;101597.38;5054393;28;20171;-77
2022/09/23 04:31:51;;;;;;;13.93;8.88;;;;;;;7.68;85.64;101601.78;5064899;28;20030;-80
2022/09/23 04:34:18;;;;;;;13.32;7.72;;;;;;;7.67;86.32;101597.41;5040487;28;20116;-80
2022/09/23 04:36:44;;;;;;;16.60;8.52;;;;;;;7.66;86.73;101593.88;5070954;28;20044;-80
2022/09/23 04:39:10;;;;;;;12.48;7.88;;;;;;;7.66;87.11;101595.63;5071931;28;20047;-80
2022/09/23 04:41:36;;;;;;;12.27;7.45;;;;;;;7.66;87.46;101593.88;5054054;28;20044;-80
2022/09/23 04:44:02;;;;;;;12.13;8.50;;;;;;;7.66;87.05;101593.00;5070841;28;20036;-80
2022/09/23 04:46:28;;;;;;;10.25;7.68;;;;;;;7.67;86.21;101589.50;5056971;28;20075;-80
2022/09/23 04:48:53;;;;;;;11.93;8.23;;;;;;;7.67;87.27;101589.50;5060807;28;20064;-81
2022/09/23 04:51:21;;;;;;;13.95;8.60;;;;;;;7.66;87.81;101588.59;5071787;28;20024;-80
2022/09/23 04:53:48;;;;;;;17.42;8.98;;;;;;;7.67;86.81;101590.38;5072364;28;20406;-81
2022/09/23 04:56:16;;;;;;;11.30;7.75;;;;;;;7.70;86.79;101587.72;5070264;28;20044;-80
2022/09/23 04:58:43;;;;;;;13.93;8.45;;;;;;;7.70;85.98;101581.59;5071193;28;20090;-80
2022/09/23 05:01:12;;;;;;;15.07;8.20;;;;;;;7.73;87.04;101582.47;5064144;28;20133;-80
2022/09/23 05:03:39;;;;;;;10.45;7.75;;;;;;;7.74;86.08;101573.69;5051182;28;20037;-80
2022/09/23 05:06:06;;;;;;;9.57;7.78;;;;;;;7.75;87.15;101580.72;5055440;28;20055;-80
2022/09/23 05:08:32;;;;;;;12.20;8.27;;;;;;;7.76;85.55;101578.94;5056388;28;20024;-80
2022/09/23 05:11:00;;;;;;;11.68;7.60;;;;;;;7.78;86.45;101574.56;5071480;28;20060;-81
2022/09/23 05:13:26;;;;;;;11.90;8.82;;;;;;;7.78;86.70;101573.69;5055622;28;20041;-81
2022/09/23 05:16:00;;;;;;;14.32;8.73;;;;;;;7.81;87.07;101579.81;5049958;28;20056;-80
2022/09/23 05:18:27;;;;;;;11.25;7.80;;;;;;;7.81;85.66;101582.47;5066361;28;20047;-80
2022/09/23 05:20:54;;;;;;;15.80;9.27;;;;;;;7.84;86.38;101578.94;5070141;28;20052;-80
2022/09/23 05:23:20;;;;;;;11.57;7.47;;;;;;;7.87;86.79;101585.13;5069677;28;20039;-80
2022/09/23 05:25:47;;;;;;;12.10;7.90;;;;;;;7.88;86.58;101589.50;5064993;28;20036;-80
2022/09/23 05:28:16;;;;;;;14.63;9.07;;;;;;;7.89;86.38;101588.66;5055696;28;20043;-81
2022/09/23 05:30:43;;;;;;;15.38;8.48;;;;;;;7.90;85.89;101585.13;5053910;28;20025;-80
2022/09/23 05:33:09;;;;;;;11.23;7.55;;;;;;;7.91;86.51;101586.91;5053458;28;20078;-80
2022/09/23 05:35:34;;;;;;;13.38;7.57;;;;;;;7.93;86.52;101587.75;5051489;28;20045;-80
2022/09/23 05:38:00;;;;;;;11.43;8.23;;;;;;;7.96;85.99;101586.88;5049959;28;20055;-80
2022/09/23 05:40:25;;;;;;;20.42;8.82;;;;;;;7.97;86.96;101596.56;5050670;28;20437;-80
2022/09/23 05:42:50;;;;;;;10.48;7.68;;;;;;;7.99;86.59;101597.47;5050545;28;20032;-80
2022/09/23 05:45:16;;;;;;;16.35;8.73;;;;;;;8.02;86.89;101599.22;5052136;28;20506;-80
2022/09/23 05:47:42;;;;;;;12.57;7.85;;;;;;;8.04;87.70;101594.81;5055103;28;20207;-80
2022/09/23 05:50:08;;;;;;;10.75;7.43;;;;;;;8.09;87.63;101596.56;5057112;28;20036;-80
2022/09/23 05:52:34;;;;;;;11.57;7.75;;;;;;;8.09;87.53;101599.22;5048910;28;20115;-80
2022/09/23 05:55:00;;;;;;;14.60;8.27;;;;;;;8.14;87.65;101599.22;5054844;28;20115;-80
2022/09/23 05:57:26;;;;;;;13.95;7.95;;;;;;;8.17;86.00;101597.44;5054772;28;20097;-81
2022/09/23 05:59:51;;;;;;;13.38;7.63;;;;;;;8.20;87.29;101599.22;5043862;28;20462;-80
2022/09/23 06:02:17;;;;;;;10.15;7.65;;;;;;;8.26;87.14;101599.22;5054739;28;20426;-80
2022/09/23 06:04:42;;;;;;;10.25;7.65;;;;;;;8.31;87.27;101605.38;5039948;28;20067;-80
2022/09/23 06:07:08;;;;;;;14.68;7.90;;;;;;;8.35;87.24;101600.97;5050516;28;20052;-80
2022/09/23 06:09:34;;;;;;;12.65;7.43;;;;;;;8.37;87.56;101594.81;5032488;28;20464;-80
2022/09/23 06:12:00;;;;;;;14.20;8.02;;;;;;;8.42;87.86;101597.47;5060843;28;20837;-80
2022/09/23 06:14:26;;;;;;;9.35;7.13;;;;;;;8.45;86.82;101597.47;5049455;28;20025;-80
2022/09/23 06:16:51;;;;;;;9.13;6.57;;;;;;;8.48;86.76;101599.22;5049745;28;20033;-80
2022/09/23 06:19:17;;;;;;;13.90;7.35;;;;;;;8.53;86.38;101594.81;5036677;28;20113;-80
2022/09/23 06:21:42;;;;;;;12.63;7.82;;;;;;;8.56;87.08;101593.06;5049525;28;20071;-80
2022/09/23 06:24:09;;;;;;;11.32;7.07;;;;;;;8.60;86.56;101592.19;5051183;28;20108;-80
2022/09/23 06:26:36;;;;;;;13.32;7.15;;;;;;;8.65;86.76;101596.56;5041414;28;20037;-80
2022/09/23 06:29:07;;;;;;;11.23;7.65;;;;;;;8.67;87.08;101594.81;5054330;28;20047;-80
2022/09/23 06:31:33;;;;;;;11.25;7.60;;;;;;;8.73;86.77;101594.78;5054608;28;20021;-80
2022/09/23 06:33:58;;;;;;;10.25;7.43;;;;;;;8.75;86.55;101588.63;5050459;28;20112;-80
2022/09/23 06:36:24;;;;;;;14.15;7.40;;;;;;;8.78;86.56;101583.34;5056028;28;20037;-80
2022/09/23 06:38:49;;;;;;;15.55;7.50;;;;;;;8.83;86.75;101581.56;5052864;28;20098;-80
2022/09/23 06:41:16;;;;;;;13.27;7.95;;;;;;;8.91;86.74;101580.66;5055386;28;20384;-80
2022/09/23 06:43:41;;;;;;;17.08;7.63;;;;;;;8.95;86.86;101579.75;5037608;28;20033;-80
2022/09/23 06:46:07;;;;;;;13.93;7.70;;;;;;;9.00;86.57;101583.25;5032477;28;20095;-80
2022/09/23 06:48:34;;;;;;;9.95;6.95;;;;;;;9.05;86.43;101586.78;5052892;28;20052;-80
2022/09/23 06:51:02;;;;;;;11.70;7.70;;;;;;;9.10;86.74;101582.38;5053060;28;20036;-80
2022/09/23 06:53:31;;;;;;;11.70;7.47;;;;;;;9.15;86.01;101583.22;5063616;28;20116;-80
2022/09/23 06:56:06;;;;;;;11.48;7.25;;;;;;;9.20;86.38;101584.06;5055163;28;20033;-80
2022/09/23 06:58:33;;;;;;;12.30;7.55;;;;;;;9.25;85.99;101586.72;5052409;28;20029;-80
2022/09/23 07:01:04;;;;;;;14.40;7.38;;;;;;;9.30;85.59;101587.56;5058020;28;20029;-80
2022/09/23 07:03:30;;;;;;;13.75;7.65;;;;;;;9.36;85.66;101579.59;5055766;28;20064;-80
2022/09/23 07:05:57;;;;;;;17.75;7.90;;;;;;;9.41;84.84;101579.56;5056307;28;20051;-80
2022/09/23 07:08:25;;;;;;;20.05;7.43;;;;;;;9.46;84.24;101575.13;5055792;28;20102;-79
2022/09/23 07:10:55;;;;;;;14.98;6.93;;;;;;;9.51;84.00;101575.97;5054919;28;20400;-80
2022/09/23 07:13:21;;;;;;;12.48;7.18;;;;;;;9.58;85.10;101576.84;5053336;28;20028;-80
2022/09/23 07:15:51;;;;;;;11.68;7.75;;;;;;;9.67;85.68;101582.06;5051200;28;20519;-79
2022/09/23 07:18:22;;;;;;;17.13;7.60;;;;;;;9.76;84.71;101581.13;5052115;28;20473;-79
2022/09/23 07:20:49;;;;;;;12.38;6.95;;;;;;;9.83;83.46;101574.91;5051669;28;20545;-80
2022/09/23 07:23:16;;;;;;;9.60;7.10;;;;;;;9.89;83.81;101569.56;5052047;28;20079;-80
2022/09/23 07:25:42;;;;;;;13.50;6.60;;;;;;;9.94;83.57;101581.00;5054752;28;20041;-80
2022/09/23 07:28:07;;;;;;;11.82;7.30;;;;;;;10.02;83.65;101581.81;5055298;28;20098;-80
2022/09/23 07:30:37;;;;;;;12.10;7.20;;;;;;;10.10;84.18;101579.13;5058889;28;20029;-80
2022/09/23 07:33:03;;;;;;;9.50;6.53;;;;;;;10.17;82.20;101580.81;5048584;28;20484;-80
2022/09/23 07:35:29;;;;;;;12.88;6.75;;;;;;;10.26;81.90;101577.19;5051733;28;20087;-80
2022/09/23 07:37:54;;;;;;;17.33;7.63;;;;;;;10.32;82.52;101572.78;5056158;28;20711;-80
2022/09/23 07:40:20;;;;;;;10.82;7.20;;;;;;;10.40;81.15;101580.63;5055420;28;20079;-80
2022/09/23 07:42:46;;;;;;;17.75;8.45;;;;;;;10.45;81.41;101578.81;5055929;28;20036;-80
2022/09/23 07:45:11;;;;;;;10.80;7.43;;;;;;;10.52;82.03;101579.66;5054727;28;20049;-80
2022/09/23 07:47:38;;;;;;;16.42;7.75;;;;;;;10.59;81.61;101575.19;5053009;28;20132;-80
2022/09/23 07:50:06;;;;;;;10.35;7.68;;;;;;;10.67;82.38;101576.84;5061995;28;20102;-80
2022/09/23 07:52:35;;;;;;;10.82;7.65;;;;;;;10.75;81.66;101568.81;5057784;28;20425;-80
2022/09/23 07:55:01;;;;;;;13.90;7.38;;;;;;;10.87;80.93;101575.75;5060958;28;20024;-80
2022/09/23 07:57:26;;;;;;;13.98;6.53;;;;;;;10.96;80.73;101578.31;5061731;28;20044;-80
2022/09/23 07:59:52;;;;;;;13.50;7.63;;;;;;;11.08;81.02;101580.81;5059852;28;20052;-80
2022/09/23 08:02:17;;;;;;;12.02;7.88;;;;;;;11.17;80.93;101587.75;5063582;28;20310;-80
2022/09/23 08:04:43;;;;;;;12.98;7.25;;;;;;;11.18;79.50;101585.09;5060725;28;20048;-80
2022/09/23 08:07:11;;;;;;;14.00;7.32;;;;;;;11.24;79.81;101586.78;5053946;28;20033;-80
2022/09/23 08:09:40;;;;;;;11.43;7.70;;;;;;;11.26;79.95;101590.31;5058816;28;20036;-80
2022/09/23 08:12:11;;;;;;;18.60;7.32;;;;;;;11.32;80.32;101587.56;5047506;28;20013;-80
2022/09/23 08:14:37;;;;;;;10.70;6.97;;;;;;;11.40;79.58;101590.13;5058999;28;20150;-80
2022/09/23 08:17:04;;;;;;;11.75;7.35;;;;;;;11.48;79.79;101584.72;5058647;28;20075;-80
2022/09/23 08:19:30;;;;;;;11.73;7.88;;;;;;;11.55;80.04;101591.69;5059394;28;20031;-80
2022/09/23 08:21:56;;;;;;;13.10;7.70;;;;;;;11.67;80.28;101583.56;5064226;28;20380;-80
2022/09/23 08:24:23;;;;;;;16.05;7.53;;;;;;;11.77;79.12;101585.19;5060716;28;20269;-80
2022/09/23 08:26:52;;;;;;;10.88;7.30;;;;;;;11.87;78.36;101583.31;5055956;28;20029;-79
2022/09/23 08:29:19;;;;;;;14.88;8.02;;;;;;;11.95;78.38;101581.41;5045538;28;20024;-80
2022/09/23 08:31:45;;;;;;;12.40;7.18;;;;;;;11.99;78.56;101583.13;5059907;28;20033;-80
2022/09/23 08:34:10;;;;;;;12.15;7.75;;;;;;;12.05;77.22;101583.00;5057145;28;20035;-80
2022/09/23 08:36:36;;;;;;;9.50;6.75;;;;;;;12.14;76.73;101581.09;5066489;28;20079;-80
2022/09/23 08:39:03;;;;;;;13.30;7.00;;;;;;;12.20;76.41;101584.53;5059823;28;20044;-80
2022/09/23 08:41:53;;;;;;;17.00;7.28;;;;;;;12.27;76.86;101580.88;5053769;28;20037;-79
2022/09/23 08:44:36;;;;;;;11.53;7.07;;;;;;;12.34;75.51;101589.63;5053219;28;20135;-79
2022/09/23 08:47:28;;;;;;;10.35;6.80;;;;;;;12.44;75.86;101587.69;5053912;28;20044;-79
2022/09/23 08:50:15;;;;;;;12.30;6.47;;;;;;;12.56;76.01;101587.47;5048981;28;20041;-80
2022/09/23 08:52:49;;;;;;;12.07;7.25;;;;;;;12.67;75.75;101582.81;5054078;28;20445;-79
2022/09/23 08:55:16;;;;;;;11.65;7.00;;;;;;;12.79;74.28;101581.69;5061332;28;20035;-79
2022/09/23 08:58:13;;;;;;;12.23;7.40;;;;;;;12.90;74.70;101576.16;5051933;28;20037;-80
2022/09/23 09:00:42;;;;;;;15.02;7.03;;;;;;;13.06;74.91;101579.41;5053451;28;20037;-80
2022/09/23 09:03:22;;;;;;;16.95;7.90;;;;;;;13.23;74.89;101571.97;5049188;28;20048;-80
2022/09/23 09:05:51;;;;;;;13.85;6.80;;;;;;;13.34;73.39;101564.63;5051240;28;20056;-80
2022/09/23 09:08:30;;;;;;;12.07;6.63;;;;;;;13.53;72.42;101565.13;5049866;28;20234;-80
2022/09/23 09:10:57;;;;;;;10.57;6.65;;;;;;;13.70;71.55;101566.53;5051296;28;20087;-79
2022/09/23 09:13:32;;;;;;;11.73;6.13;;;;;;;13.87;71.47;101561.69;5049999;28;20114;-80
2022/09/23 09:16:07;;;;;;;15.27;6.88;;;;;;;14.02;71.21;101568.44;5050950;28;20056;-80
2022/09/23 09:18:39;;;;;;;10.82;6.10;;;;;;;14.11;69.04;101560.19;5051163;28;20068;-80
2022/09/23 09:21:12;;;;;;;9.10;5.95;;;;;;;14.24;69.82;101562.53;5049444;28;20136;-79
2022/09/23 09:23:54;;;;;;;9.13;5.97;;;;;;;14.35;70.55;101563.16;5051101;28;20055;-79
2022/09/23 09:26:23;;;;;;;12.20;5.90;;;;;;;14.52;69.57;101565.38;5053533;28;20086;-79
2022/09/23 09:29:13;;;;;;;10.40;5.82;;;;;;;14.67;68.07;101559.66;5054430;28;20520;-79
2022/09/23 09:31:42;;;;;;;8.15;5.80;;;;;;;14.88;67.25;101559.97;5060581;28;20028;-79
2022/09/23 09:34:25;;;;;;;9.80;5.88;;;;;;;15.02;66.32;101555.13;5059925;28;20044;-79
2022/09/23 09:36:56;;;;;;;11.27;5.82;;;;;;;15.09;65.33;101555.81;5060511;28;20375;-79
2022/09/23 09:39:22;;;;;;;10.93;6.00;;;;;;;15.18;65.05;101553.75;5055940;28;20047;-79
2022/09/23 09:41:50;;;;;;;10.73;5.60;;;;;;;15.27;64.46;101545.47;5047819;28;20441;-79
2022/09/23 09:44:25;;;;;;;13.25;6.38;;;;;;;15.31;65.03;101540.91;5060009;28;20449;-79
2022/09/23 09:47:09;;;;;;;11.15;6.15;;;;;;;15.38;64.31;101553.16;5060632;28;20064;-79
2022/09/23 09:49:44;;;;;;;11.98;5.65;;;;;;;15.44;63.36;101544.94;5057491;28;20040;-79
2022/09/23 09:52:14;;;;;;;9.40;5.70;;;;;;;15.52;63.51;101546.50;5053486;28;20033;-79
2022/09/23 09:54:40;;;;;;;18.92;6.03;;;;;;;15.61;62.46;101540.91;5056230;28;20068;-80
2022/09/23 09:57:26;;;;;;;11.80;5.32;;;;;;;15.77;63.51;101543.97;5050653;28;20123;-79
2022/09/23 09:59:52;;;;;;;14.23;5.82;;;;;;;15.87;62.88;101542.75;5050984;28;20372;-79
2022/09/23 10:02:34;;;;;;;11.00;5.30;;;;;;;15.98;62.01;101547.75;5061905;28;20037;-79
2022/09/23 10:05:04;;;;;;;12.23;5.32;;;;;;;16.16;62.46;101540.91;5060215;28;20472;-79
2022/09/23 10:07:32;;;;;;;10.13;5.70;;;;;;;16.28;61.36;101532.47;5055914;28;20448;-80
2022/09/23 10:10:13;;;;;;;16.73;5.80;;;;;;;16.40;61.57;101533.84;5056643;28;20498;-79
2022/09/23 10:12:46;;;;;;;11.52;5.50;;;;;;;16.50;59.80;101537.94;5061966;28;20025;-79
2022/09/23 10:15:27;;;;;;;11.13;5.78;;;;;;;16.54;59.58;101531.53;5066726;28;20059;-79
2022/09/23 10:17:53;;;;;;;10.88;4.60;;;;;;;16.58;59.65;101532.31;5069329;28;20044;-79
2022/09/23 10:20:19;;;;;;;12.82;5.38;;;;;;;16.58;57.63;101525.16;5060202;28;20108;-79
2022/09/23 10:22:45;;;;;;;9.80;5.43;;;;;;;16.66;59.26;101515.06;5068626;28;20115;-79
2022/09/23 10:25:26;;;;;;;9.95;4.97;;;;;;;16.80;59.61;101522.63;5057100;28;20033;-79
2022/09/23 10:27:52;;;;;;;7.72;4.93;;;;;;;16.97;58.93;101522.84;5069020;28;20037;-80
2022/09/23 10:30:22;;;;;;;9.35;5.18;;;;;;;17.04;57.67;101517.28;5052936;28;20098;-79
2022/09/23 10:32:49;;;;;;;10.75;5.32;;;;;;;17.09;58.03;101515.31;5053710;28;20024;-79
2022/09/23 10:35:20;;;;;;;9.65;4.60;;;;;;;17.16;57.46;101519.47;5062749;28;20107;-79
2022/09/23 10:37:50;;;;;;;8.45;4.32;;;;;;;17.20;57.83;101518.44;5062258;28;20037;-79
2022/09/23 10:49:19;;;;;;;9.18;4.47;;;;;;;17.39;56.99;101523.94;5064813;28;20163;-79
2022/09/23 10:51:47;;;;;;;10.27;4.20;;;;;;;17.44;55.85;101521.97;5059283;28;20095;-79
2022/09/23 10:54:46;;;;;;;9.18;4.10;;;;;;;17.51;56.83;101509.22;5072334;28;20434;-79
2022/09/23 10:57:40;;;;;;;11.88;4.28;;;;;;;17.57;56.46;101519.66;5062871;28;20032;-79
2022/09/23 11:00:41;;;;;;;7.60;3.88;;;;;;;17.55;54.11;101510.81;5058656;28;20110;-80
2022/09/23 11:03:12;;;;;;;6.40;3.72;;;;;;;17.56;56.05;101512.56;5058598;28;20036;-79
2022/09/23 11:06:01;;;;;;;9.82;4.20;;;;;;;17.56;53.94;101508.06;5063430;28;20407;-79
2022/09/23 11:09:08;;;;;;;9.45;4.10;;;;;;;17.58;54.77;101510.66;5042390;28;20535;-79
2022/09/23 11:11:46;;;;;;;8.27;3.97;;;;;;;17.70;56.32;101503.94;5063068;28;20385;-79
2022/09/23 11:14:42;;;;;;;7.10;4.20;;;;;;;17.82;56.09;101507.03;5059455;28;20044;-79
2022/09/23 11:17:38;;;;;;;8.18;3.80;;;;;;;17.92;55.23;101509.31;5056826;28;20064;-79
2022/09/23 11:20:35;;;;;;;9.80;3.92;;;;;;;17.99;55.30;101502.78;5053788;28;20044;-79
2022/09/23 11:23:17;;;;;;;9.15;4.10;;;;;;;17.93;52.03;101501.25;5036503;28;20072;-79
2022/09/23 11:25:49;;;;;;;8.20;3.78;;;;;;;17.95;53.42;101496.69;5053716;28;20036;-79
2022/09/23 11:28:36;;;;;;;8.00;4.10;;;;;;;18.01;52.82;101496.41;5054435;28;20047;-79
2022/09/23 11:31:27;;;;;;;6.53;3.60;;;;;;;18.11;54.19;101496.91;5051852;28;20392;-79
2022/09/23 11:34:10;;;;;;;10.30;3.70;;;;;;;18.31;52.78;101492.47;5051976;28;20396;-79
2022/09/23 11:36:48;;;;;;;10.02;3.85;;;;;;;18.48;52.66;101492.59;5053410;28;20029;-79
2022/09/23 11:39:29;;;;;;;7.07;3.72;;;;;;;18.53;53.03;101493.28;5051459;28;20033;-79
2022/09/23 11:41:58;;;;;;;6.25;3.55;;;;;;;18.43;52.54;101491.94;5052927;28;20051;-79
2022/09/23 11:44:32;;;;;;;7.18;3.50;;;;;;;18.46;51.42;101491.81;5054500;28;20112;-79
2022/09/23 11:47:06;;;;;;;7.20;3.72;;;;;;;18.47;52.15;101488.16;5060911;28;20056;-79
2022/09/23 11:50:00;;;;;;;5.88;3.40;;;;;;;18.51;50.33;101486.25;5071445;28;20047;-79
2022/09/23 11:52:40;;;;;;;6.93;3.63;;;;;;;18.55;50.48;101474.44;5062499;28;20033;-79
2022/09/23 11:55:14;;;;;;;13.57;4.67;;;;;;;18.63;50.87;101478.50;5071270;28;20041;-79